createdAt,value
2023-02-02T00:00:53.840Z,951.43
2023-02-02T00:01:53.827Z,951.42
2023-02-02T00:02:53.866Z,951.4
2023-02-02T00:03:53.898Z,951.41
2023-02-02T00:04:53.761Z,951.45
2023-02-02T00:05:53.745Z,951.48
2023-02-02T00:06:53.723Z,951.48
2023-02-02T00:07:53.706Z,951.5
2023-02-02T00:08:53.681Z,951.42
2023-02-02T00:09:53.668Z,951.51
2023-02-02T00:10:53.642Z,951.49
2023-02-02T00:11:53.625Z,951.55
2023-02-02T00:12:53.603Z,951.54
2023-02-02T00:13:53.585Z,951.53
2023-02-02T00:14:53.566Z,951.53
2023-02-02T00:15:53.588Z,951.53
2023-02-02T00:16:53.543Z,951.55
2023-02-02T00:17:53.507Z,951.52
2023-02-02T00:18:53.486Z,951.51
2023-02-02T00:19:53.488Z,951.51
2023-02-02T00:20:53.446Z,951.5
2023-02-02T00:21:53.424Z,951.54
2023-02-02T00:22:53.406Z,951.51
2023-02-02T00:23:53.390Z,951.54
2023-02-02T00:24:53.369Z,951.61
2023-02-02T00:25:53.346Z,951.52
2023-02-02T00:26:53.376Z,951.54
2023-02-02T00:27:53.305Z,951.55
2023-02-02T00:28:53.289Z,951.59
2023-02-02T00:29:53.266Z,951.53
2023-02-02T00:30:53.250Z,951.56
2023-02-02T00:31:53.360Z,951.52
2023-02-02T00:32:53.251Z,951.58
2023-02-02T00:33:53.187Z,951.57
2023-02-02T00:34:53.176Z,951.57
2023-02-02T00:35:53.173Z,951.6
2023-02-02T00:36:53.145Z,951.56
2023-02-02T00:37:53.110Z,951.57
2023-02-02T00:38:53.089Z,951.61
2023-02-02T00:39:53.066Z,951.59
2023-02-02T00:40:53.051Z,951.66
2023-02-02T00:41:53.029Z,951.61
2023-02-02T00:42:53.009Z,951.64
2023-02-02T00:43:52.990Z,951.64
2023-02-02T00:44:52.972Z,951.57
2023-02-02T00:45:52.976Z,951.59
2023-02-02T00:46:52.929Z,951.6
2023-02-02T00:47:52.913Z,951.59
2023-02-02T00:48:52.893Z,951.6
2023-02-02T00:49:52.869Z,951.59
2023-02-02T00:50:52.852Z,951.6
2023-02-02T00:51:52.854Z,951.61
2023-02-02T00:52:52.815Z,951.6
2023-02-02T00:53:52.790Z,951.7
2023-02-02T00:54:52.772Z,951.73
2023-02-02T00:55:52.756Z,951.71
2023-02-02T00:56:52.734Z,951.75
2023-02-02T00:57:52.716Z,951.76
2023-02-02T00:58:52.694Z,951.72
2023-02-02T00:59:52.681Z,951.78
2023-02-02T01:00:53.239Z,951.84
2023-02-02T01:01:53.154Z,951.81
2023-02-02T01:02:53.115Z,951.8
2023-02-02T01:03:53.094Z,951.83
2023-02-02T01:04:53.074Z,951.81
2023-02-02T01:05:53.066Z,951.88
2023-02-02T01:06:53.034Z,951.89
2023-02-02T01:07:53.041Z,951.8
2023-02-02T01:08:52.997Z,951.84
2023-02-02T01:09:52.982Z,951.89
2023-02-02T01:10:52.957Z,951.88
2023-02-02T01:11:52.936Z,951.86
2023-02-02T01:12:52.917Z,951.87
2023-02-02T01:13:52.897Z,951.84
2023-02-02T01:14:52.880Z,951.9
2023-02-02T01:15:52.861Z,951.94
2023-02-02T01:16:52.837Z,951.9
2023-02-02T01:17:52.823Z,951.92
2023-02-02T01:18:52.800Z,951.96
2023-02-02T01:19:52.779Z,951.97
2023-02-02T01:20:52.759Z,951.95
2023-02-02T01:21:52.741Z,952.03
2023-02-02T01:22:52.738Z,951.9
2023-02-02T01:23:52.723Z,951.98
2023-02-02T01:24:52.684Z,952
2023-02-02T01:25:52.660Z,952
2023-02-02T01:26:52.656Z,951.99
2023-02-02T01:27:52.624Z,952
2023-02-02T01:28:52.605Z,952.09
2023-02-02T01:29:52.581Z,952.03
2023-02-02T01:30:52.585Z,952.07
2023-02-02T01:31:52.563Z,952.11
2023-02-02T01:32:52.523Z,952.06
2023-02-02T01:33:52.501Z,952.18
2023-02-02T01:34:52.484Z,952.12
2023-02-02T01:35:52.461Z,952.11
2023-02-02T01:36:52.455Z,952.11
2023-02-02T01:37:52.421Z,952.12
2023-02-02T01:38:52.416Z,952.12
2023-02-02T01:39:52.414Z,952.14
2023-02-02T01:40:52.373Z,952.12
2023-02-02T01:41:52.347Z,952.08
2023-02-02T01:42:52.331Z,952.13
2023-02-02T01:43:52.304Z,952.08
2023-02-02T01:44:52.286Z,952.09
2023-02-02T01:45:52.267Z,952.08
2023-02-02T01:46:52.269Z,952.08
2023-02-02T01:47:52.230Z,952.06
2023-02-02T01:48:52.207Z,952.13
2023-02-02T01:49:52.184Z,952.12
2023-02-02T01:50:52.165Z,952.12
2023-02-02T01:51:52.153Z,952.16
2023-02-02T01:52:52.125Z,952.15
2023-02-02T01:53:52.105Z,952.15
2023-02-02T01:54:52.086Z,952.14
2023-02-02T01:55:52.093Z,952.14
2023-02-02T01:56:52.049Z,952.11
2023-02-02T01:57:52.040Z,952.11
2023-02-02T01:58:52.014Z,952.15
2023-02-02T01:59:51.985Z,952.18
2023-02-02T02:00:51.967Z,952.21
2023-02-02T02:01:51.948Z,952.15
2023-02-02T02:02:51.926Z,952.12
2023-02-02T02:03:51.908Z,952.12
2023-02-02T02:04:51.886Z,952.19
2023-02-02T02:05:51.937Z,952.23
2023-02-02T02:06:51.849Z,952.21
2023-02-02T02:07:51.836Z,952.21
2023-02-02T02:08:51.810Z,952.23
2023-02-02T02:09:51.793Z,952.2
2023-02-02T02:10:51.767Z,952.16
2023-02-02T02:11:51.774Z,952.17
2023-02-02T02:12:51.729Z,952.15
2023-02-02T02:13:51.711Z,952.18
2023-02-02T02:14:51.690Z,952.17
2023-02-02T02:15:51.671Z,952.19
2023-02-02T02:16:51.686Z,952.23
2023-02-02T02:17:51.633Z,952.2
2023-02-02T02:18:51.614Z,952.14
2023-02-02T02:19:51.595Z,952.2
2023-02-02T02:20:51.573Z,952.2
2023-02-02T02:21:51.554Z,952.19
2023-02-02T02:22:51.532Z,952.2
2023-02-02T02:23:51.525Z,952.2
2023-02-02T02:24:51.493Z,952.2
2023-02-02T02:25:51.474Z,952.17
2023-02-02T02:26:51.480Z,952.22
2023-02-02T02:27:51.460Z,952.24
2023-02-02T02:28:51.414Z,952.19
2023-02-02T02:29:51.398Z,952.21
2023-02-02T02:30:51.458Z,952.22
2023-02-02T02:31:51.480Z,952.21
2023-02-02T02:32:51.335Z,952.16
2023-02-02T02:33:51.316Z,952.15
2023-02-02T02:34:51.296Z,952.11
2023-02-02T02:35:51.279Z,952.12
2023-02-02T02:36:51.258Z,952.18
2023-02-02T02:37:51.238Z,952.15
2023-02-02T02:38:51.216Z,952.18
2023-02-02T02:39:51.200Z,952.2
2023-02-02T02:40:51.189Z,952.21
2023-02-02T02:41:51.164Z,952.2
2023-02-02T02:42:51.149Z,952.18
2023-02-02T02:43:51.144Z,952.14
2023-02-02T02:44:51.100Z,952.17
2023-02-02T02:45:51.913Z,952.15
2023-02-02T02:46:51.836Z,952.12
2023-02-02T02:47:51.818Z,952.12
2023-02-02T02:48:51.796Z,952.11
2023-02-02T02:49:51.778Z,952.13
2023-02-02T02:50:51.756Z,952.13
2023-02-02T02:51:51.740Z,952.14
2023-02-02T02:52:51.719Z,952.12
2023-02-02T02:53:51.700Z,952.1
2023-02-02T02:54:51.699Z,952.08
2023-02-02T02:55:51.657Z,952.09
2023-02-02T02:56:51.640Z,952.1
2023-02-02T02:57:51.617Z,952.14
2023-02-02T02:58:51.599Z,952.16
2023-02-02T02:59:51.603Z,952.17
2023-02-02T03:00:51.559Z,952.15
2023-02-02T03:01:51.559Z,952.14
2023-02-02T03:02:51.594Z,952.15
2023-02-02T03:03:51.717Z,952.15
2023-02-02T03:04:51.695Z,952.12
2023-02-02T03:05:51.684Z,952.16
2023-02-02T03:06:51.654Z,952.15
2023-02-02T03:07:51.634Z,952.14
2023-02-02T03:08:51.623Z,952.19
2023-02-02T03:09:51.594Z,952.17
2023-02-02T03:10:51.576Z,952.19
2023-02-02T03:11:51.557Z,952.17
2023-02-02T03:12:51.535Z,952.23
2023-02-02T03:13:51.530Z,952.18
2023-02-02T03:14:51.501Z,952.16
2023-02-02T03:15:51.535Z,952.14
2023-02-02T03:16:51.468Z,952.15
2023-02-02T03:17:51.434Z,952.23
2023-02-02T03:18:51.418Z,952.19
2023-02-02T03:19:51.395Z,952.18
2023-02-02T03:20:51.377Z,952.26
2023-02-02T03:21:51.356Z,952.23
2023-02-02T03:22:51.355Z,952.24
2023-02-02T03:23:51.315Z,952.27
2023-02-02T03:24:51.906Z,952.23
2023-02-02T03:25:51.884Z,952.34
2023-02-02T03:26:51.952Z,952.23
2023-02-02T03:27:51.849Z,952.31
2023-02-02T03:28:51.827Z,952.34
2023-02-02T03:29:51.805Z,952.31
2023-02-02T03:30:51.848Z,952.3
2023-02-02T03:31:51.790Z,952.29
2023-02-02T03:49:30.356Z,952.23
2023-02-02T03:50:30.308Z,952.28
2023-02-02T03:51:30.289Z,952.29
2023-02-02T03:52:30.268Z,952.24
2023-02-02T03:53:30.248Z,952.23
2023-02-02T03:54:30.222Z,952.29
2023-02-02T03:55:30.203Z,952.33
2023-02-02T03:56:30.180Z,952.34
2023-02-02T03:57:30.159Z,952.38
2023-02-02T03:58:30.139Z,952.4
2023-02-02T03:59:30.117Z,952.42
2023-02-02T04:00:30.102Z,952.4
2023-02-02T04:01:30.223Z,952.49
2023-02-02T04:02:30.075Z,952.44
2023-02-02T04:03:30.036Z,952.42
2023-02-02T04:04:30.016Z,952.46
2023-02-02T04:05:30.023Z,952.34
2023-02-02T04:06:29.980Z,952.44
2023-02-02T04:07:29.955Z,952.47
2023-02-02T04:08:29.936Z,952.31
2023-02-02T04:09:29.916Z,952.39
2023-02-02T04:10:29.894Z,952.43
2023-02-02T04:11:29.876Z,952.42
2023-02-02T04:12:29.855Z,952.42
2023-02-02T04:13:29.840Z,952.37
2023-02-02T04:14:29.819Z,952.46
2023-02-02T04:15:29.796Z,952.4
2023-02-02T04:16:29.881Z,952.46
2023-02-02T04:17:29.758Z,952.38
2023-02-02T04:18:29.740Z,952.44
2023-02-02T04:19:29.724Z,952.44
2023-02-02T04:20:30.260Z,952.47
2023-02-02T04:21:30.264Z,952.43
2023-02-02T04:22:30.219Z,952.56
2023-02-02T04:23:30.202Z,952.49
2023-02-02T04:24:30.179Z,952.51
2023-02-02T04:25:30.163Z,952.49
2023-02-02T04:26:30.205Z,952.53
2023-02-02T04:27:30.122Z,952.56
2023-02-02T04:28:30.106Z,952.52
2023-02-02T04:29:30.082Z,952.59
2023-02-02T04:30:30.063Z,952.56
2023-02-02T04:31:30.183Z,952.58
2023-02-02T04:32:30.025Z,952.59
2023-02-02T04:33:30.011Z,952.5
2023-02-02T04:34:29.987Z,952.57
2023-02-02T04:35:30.002Z,952.64
2023-02-02T04:36:29.944Z,952.63
2023-02-02T04:37:29.951Z,952.67
2023-02-02T04:38:29.906Z,952.67
2023-02-02T04:39:29.887Z,952.74
2023-02-02T04:40:29.867Z,952.66
2023-02-02T04:41:29.847Z,952.67
2023-02-02T04:42:29.829Z,952.72
2023-02-02T04:43:29.812Z,952.78
2023-02-02T04:44:29.793Z,952.79
2023-02-02T04:45:29.791Z,952.78
2023-02-02T04:46:29.759Z,952.82
2023-02-02T04:47:29.730Z,952.82
2023-02-02T04:48:29.710Z,952.83
2023-02-02T04:49:29.693Z,952.81
2023-02-02T04:50:29.673Z,952.82
2023-02-02T04:51:29.652Z,952.76
2023-02-02T04:52:29.636Z,952.86
2023-02-02T04:53:29.640Z,952.83
2023-02-02T04:54:29.592Z,952.81
2023-02-02T04:55:29.571Z,952.82
2023-02-02T04:56:29.555Z,952.78
2023-02-02T04:57:29.533Z,952.82
2023-02-02T04:58:29.515Z,952.85
2023-02-02T04:59:29.496Z,952.9
2023-02-02T05:00:29.477Z,952.92
2023-02-02T05:01:29.455Z,952.92
2023-02-02T05:02:29.435Z,952.93
2023-02-02T05:03:29.417Z,952.97
2023-02-02T05:04:29.688Z,952.95
2023-02-02T05:05:29.390Z,952.92
2023-02-02T05:06:29.375Z,952.96
2023-02-02T05:07:29.339Z,952.99
2023-02-02T05:08:29.320Z,953
2023-02-02T05:09:29.323Z,952.99
2023-02-02T05:10:29.279Z,952.96
2023-02-02T05:11:29.261Z,953.03
2023-02-02T05:12:29.240Z,953.11
2023-02-02T05:13:29.220Z,953.09
2023-02-02T05:14:29.201Z,953.08
2023-02-02T05:15:29.183Z,953.03
2023-02-02T05:16:29.379Z,953.04
2023-02-02T05:17:29.142Z,953.04
2023-02-02T05:18:29.124Z,953.07
2023-02-02T05:19:29.101Z,953.07
2023-02-02T05:20:29.085Z,953.15
2023-02-02T05:21:29.067Z,953.13
2023-02-02T05:22:29.044Z,953.09
2023-02-02T05:23:29.023Z,953.14
2023-02-02T05:24:29.005Z,953.15
2023-02-02T05:25:29.009Z,953.11
2023-02-02T05:26:29.002Z,953.17
2023-02-02T05:27:28.945Z,953.16
2023-02-02T05:28:28.928Z,953.2
2023-02-02T05:29:28.906Z,953.18
2023-02-02T05:30:28.904Z,953.17
2023-02-02T05:31:28.889Z,953.18
2023-02-02T05:32:28.847Z,953.19
2023-02-02T05:33:28.832Z,953.29
2023-02-02T05:34:28.813Z,953.24
2023-02-02T05:35:28.790Z,953.24
2023-02-02T05:36:28.768Z,953.23
2023-02-02T05:37:28.752Z,953.27
2023-02-02T05:38:28.729Z,953.25
2023-02-02T05:39:28.716Z,953.26
2023-02-02T05:40:28.691Z,953.21
2023-02-02T05:41:28.699Z,953.22
2023-02-02T05:42:28.651Z,953.28
2023-02-02T05:43:28.647Z,953.25
2023-02-02T05:44:28.612Z,953.32
2023-02-02T05:45:28.606Z,953.29
2023-02-02T05:46:28.575Z,953.35
2023-02-02T05:47:28.556Z,953.38
2023-02-02T05:48:28.535Z,953.36
2023-02-02T05:49:28.516Z,953.4
2023-02-02T05:50:28.497Z,953.36
2023-02-02T05:51:28.483Z,953.34
2023-02-02T05:52:28.459Z,953.38
2023-02-02T05:53:28.439Z,953.41
2023-02-02T05:54:28.421Z,953.43
2023-02-02T05:55:28.401Z,953.41
2023-02-02T05:56:28.378Z,953.39
2023-02-02T05:57:28.385Z,953.43
2023-02-02T05:58:28.348Z,953.42
2023-02-02T05:59:28.331Z,953.42
2023-02-02T06:00:28.301Z,953.46
2023-02-02T06:01:28.287Z,953.45
2023-02-02T06:02:28.262Z,953.49
2023-02-02T06:03:28.318Z,953.48
2023-02-02T06:04:28.222Z,953.53
2023-02-02T06:05:28.209Z,953.49
2023-02-02T06:06:28.192Z,953.48
2023-02-02T06:07:28.167Z,953.48
2023-02-02T06:08:28.148Z,953.49
2023-02-02T06:09:28.131Z,953.54
2023-02-02T06:10:28.109Z,953.57
2023-02-02T06:11:28.091Z,953.49
2023-02-02T06:12:28.069Z,953.57
2023-02-02T06:13:28.073Z,953.56
2023-02-02T06:14:28.032Z,953.51
2023-02-02T06:15:28.351Z,953.49
2023-02-02T06:16:27.991Z,953.5
2023-02-02T06:17:27.972Z,953.5
2023-02-02T06:18:27.951Z,953.55
2023-02-02T06:19:27.933Z,953.48
2023-02-02T06:20:27.913Z,953.6
2023-02-02T06:21:27.893Z,953.59
2023-02-02T06:22:27.874Z,953.59
2023-02-02T06:23:27.853Z,953.63
2023-02-02T06:24:27.839Z,953.59
2023-02-02T06:25:27.819Z,953.61
2023-02-02T06:26:27.822Z,953.59
2023-02-02T06:27:27.776Z,953.64
2023-02-02T06:28:27.784Z,953.61
2023-02-02T06:29:27.760Z,953.64
2023-02-02T06:30:27.722Z,953.61
2023-02-02T06:31:27.833Z,953.52
2023-02-02T06:32:27.688Z,953.61
2023-02-02T06:33:27.658Z,953.6
2023-02-02T06:34:27.642Z,953.59
2023-02-02T06:35:27.733Z,953.6
2023-02-02T06:36:27.649Z,953.57
2023-02-02T06:37:30.407Z,953.56
2023-02-02T06:38:27.562Z,953.59
2023-02-02T06:39:27.542Z,953.59
2023-02-02T06:40:27.523Z,953.64
2023-02-02T06:41:27.524Z,953.63
2023-02-02T06:42:27.487Z,953.61
2023-02-02T06:43:27.480Z,953.68
2023-02-02T06:44:27.448Z,953.6
2023-02-02T06:45:27.535Z,953.6
2023-02-02T06:46:27.529Z,953.65
2023-02-02T06:47:27.405Z,953.64
2023-02-02T06:48:27.404Z,953.65
2023-02-02T06:49:27.349Z,953.6
2023-02-02T06:50:27.329Z,953.63
2023-02-02T06:51:27.312Z,953.6
2023-02-02T06:52:27.306Z,953.59
2023-02-02T06:53:27.270Z,953.61
2023-02-02T06:54:27.253Z,953.61
2023-02-02T06:55:27.445Z,953.55
2023-02-02T06:56:27.221Z,953.53
2023-02-02T06:57:27.194Z,953.56
2023-02-02T06:58:27.174Z,953.55
2023-02-02T06:59:27.720Z,953.52
2023-02-02T07:00:27.700Z,953.58
2023-02-02T07:01:27.743Z,953.58
2023-02-02T07:02:27.701Z,953.59
2023-02-02T07:03:27.643Z,953.63
2023-02-02T07:04:27.637Z,953.58
2023-02-02T07:05:30.055Z,953.61
2023-02-02T07:06:27.589Z,953.61
2023-02-02T07:07:27.563Z,953.65
2023-02-02T07:08:27.548Z,953.69
2023-02-02T07:09:27.526Z,953.66
2023-02-02T07:11:08.411Z,953.74
2023-02-02T07:11:27.488Z,953.71
2023-02-02T07:12:27.467Z,953.69
2023-02-02T07:13:27.447Z,953.7
2023-02-02T07:14:27.428Z,953.73
2023-02-02T07:15:27.417Z,953.71
2023-02-02T07:16:27.395Z,953.74
2023-02-02T07:17:27.429Z,953.71
2023-02-02T07:18:27.351Z,953.74
2023-02-02T07:19:27.334Z,953.74
2023-02-02T07:20:27.313Z,953.73
2023-02-02T07:21:27.298Z,953.74
2023-02-02T07:22:27.280Z,953.73
2023-02-02T07:23:27.258Z,953.8
2023-02-02T07:24:27.238Z,953.81
2023-02-02T07:25:27.467Z,953.81
2023-02-02T07:26:27.258Z,953.83
2023-02-02T07:27:27.179Z,953.86
2023-02-02T07:28:27.157Z,953.89
2023-02-02T07:29:27.141Z,953.93
2023-02-02T07:30:27.130Z,953.95
2023-02-02T07:31:27.172Z,953.94
2023-02-02T07:32:27.086Z,953.98
2023-02-02T07:33:27.092Z,954.01
2023-02-02T07:34:27.049Z,954.01
2023-02-02T07:35:27.026Z,953.98
2023-02-02T07:36:27.006Z,954.02
2023-02-02T07:37:26.989Z,953.94
2023-02-02T07:38:26.969Z,954.03
2023-02-02T07:39:26.948Z,954.03
2023-02-02T07:40:26.933Z,954.05
2023-02-02T07:41:27.134Z,954.04
2023-02-02T07:42:27.113Z,953.95
2023-02-02T07:43:27.096Z,953.99
2023-02-02T07:44:27.086Z,953.97
2023-02-02T07:45:28.131Z,953.95
2023-02-02T07:46:27.078Z,954
2023-02-02T07:47:27.017Z,953.96
2023-02-02T07:48:27.006Z,953.99
2023-02-02T07:49:27.010Z,954.02
2023-02-02T07:50:27.096Z,954.03
2023-02-02T07:51:26.954Z,954.06
2023-02-02T07:52:26.920Z,954.06
2023-02-02T07:53:26.905Z,954
2023-02-02T07:54:26.884Z,953.98
2023-02-02T07:55:26.998Z,953.95
2023-02-02T07:56:26.850Z,953.97
2023-02-02T07:57:26.834Z,953.94
2023-02-02T07:58:26.811Z,953.97
2023-02-02T07:59:26.791Z,953.94
2023-02-02T08:00:26.957Z,953.95
2023-02-02T08:01:26.917Z,954.05
2023-02-02T08:02:26.797Z,953.98
2023-02-02T08:03:26.714Z,953.96
2023-02-02T08:04:26.693Z,953.97
2023-02-02T08:05:27.149Z,953.97
2023-02-02T08:06:26.659Z,954.02
2023-02-02T08:07:26.642Z,954
2023-02-02T08:08:26.622Z,954.01
2023-02-02T08:09:26.602Z,954.04
2023-02-02T08:10:26.583Z,954.03
2023-02-02T08:11:26.563Z,954.07
2023-02-02T08:12:26.545Z,954.07
2023-02-02T08:13:26.530Z,954.05
2023-02-02T08:14:26.512Z,954.07
2023-02-02T08:15:26.710Z,954.12
2023-02-02T08:16:26.519Z,954.09
2023-02-02T08:17:26.454Z,954.14
2023-02-02T08:18:26.433Z,954.11
2023-02-02T08:19:26.414Z,954.11
2023-02-02T08:20:26.396Z,954.1
2023-02-02T08:21:26.414Z,954.14
2023-02-02T08:22:26.361Z,954.16
2023-02-02T08:23:26.341Z,954.19
2023-02-02T08:24:26.326Z,954.24
2023-02-02T08:25:26.639Z,954.27
2023-02-02T08:26:26.343Z,954.28
2023-02-02T08:27:26.267Z,954.3
2023-02-02T08:28:26.247Z,954.26
2023-02-02T08:29:26.229Z,954.27
2023-02-02T08:30:26.305Z,954.25
2023-02-02T08:31:26.274Z,954.26
2023-02-02T08:32:26.171Z,954.32
2023-02-02T08:33:26.154Z,954.3
2023-02-02T08:34:26.141Z,954.25
2023-02-02T08:35:26.321Z,954.32
2023-02-02T08:36:26.106Z,954.32
2023-02-02T08:37:26.115Z,954.32
2023-02-02T08:38:26.060Z,954.32
2023-02-02T08:39:26.040Z,954.36
2023-02-02T08:40:26.036Z,954.38
2023-02-02T08:41:26.000Z,954.41
2023-02-02T08:42:25.988Z,954.44
2023-02-02T08:43:25.969Z,954.45
2023-02-02T08:44:26.896Z,954.47
2023-02-02T08:46:10.965Z,954.45
2023-02-02T08:47:10.926Z,954.45
2023-02-02T08:48:12.313Z,954.45
2023-02-02T08:49:10.822Z,954.5
2023-02-02T08:50:10.794Z,954.51
2023-02-02T08:51:10.778Z,954.5
2023-02-02T08:52:10.758Z,954.57
2023-02-02T08:53:10.765Z,954.53
2023-02-02T08:54:10.721Z,954.64
2023-02-02T08:55:10.709Z,954.58
2023-02-02T08:56:10.681Z,954.61
2023-02-02T08:57:10.664Z,954.66
2023-02-02T08:58:10.648Z,954.62
2023-02-02T08:59:10.632Z,954.66
2023-02-02T09:00:10.610Z,954.63
2023-02-02T09:01:10.659Z,954.65
2023-02-02T09:02:10.633Z,954.67
2023-02-02T09:03:10.569Z,954.66
2023-02-02T09:04:11.212Z,954.63
2023-02-02T09:05:11.202Z,954.66
2023-02-02T09:06:11.173Z,954.63
2023-02-02T09:07:11.153Z,954.63
2023-02-02T09:08:11.200Z,954.61
2023-02-02T09:09:11.148Z,954.7
2023-02-02T09:10:11.102Z,954.68
2023-02-02T09:11:11.079Z,954.67
2023-02-02T09:12:11.061Z,954.65
2023-02-02T09:13:11.048Z,954.71
2023-02-02T09:14:11.023Z,954.64
2023-02-02T09:15:11.002Z,954.67
2023-02-02T09:16:11.045Z,954.69
2023-02-02T09:17:10.970Z,954.65
2023-02-02T09:18:10.951Z,954.69
2023-02-02T09:19:10.941Z,954.68
2023-02-02T09:20:10.916Z,954.66
2023-02-02T09:21:10.894Z,954.7
2023-02-02T09:22:10.878Z,954.72
2023-02-02T09:23:10.864Z,954.71
2023-02-02T09:24:10.841Z,954.72
2023-02-02T09:25:10.904Z,954.7
2023-02-02T09:26:10.817Z,954.66
2023-02-02T09:27:10.802Z,954.64
2023-02-02T09:28:10.780Z,954.64
2023-02-02T09:29:10.760Z,954.7
2023-02-02T09:30:10.771Z,954.7
2023-02-02T09:31:10.788Z,954.71
2023-02-02T09:32:10.775Z,954.71
2023-02-02T09:33:10.687Z,954.72
2023-02-02T09:34:10.671Z,954.76
2023-02-02T09:35:10.650Z,954.78
2023-02-02T09:36:10.635Z,954.79
2023-02-02T09:37:10.615Z,954.75
2023-02-02T09:38:10.602Z,954.8
2023-02-02T09:39:10.578Z,954.82
2023-02-02T09:40:10.562Z,954.82
2023-02-02T09:41:10.583Z,954.83
2023-02-02T09:42:10.525Z,954.85
2023-02-02T09:43:10.505Z,954.9
2023-02-02T09:44:10.495Z,954.91
2023-02-02T09:45:10.468Z,954.87
2023-02-02T09:46:10.548Z,954.9
2023-02-02T09:47:10.434Z,954.87
2023-02-02T09:48:10.418Z,954.86
2023-02-02T09:49:10.398Z,954.93
2023-02-02T09:50:10.376Z,954.93
2023-02-02T09:51:10.362Z,954.97
2023-02-02T09:52:10.344Z,954.96
2023-02-02T09:53:10.325Z,954.98
2023-02-02T09:54:10.306Z,954.94
2023-02-02T09:55:10.289Z,954.91
2023-02-02T09:56:10.272Z,954.9
2023-02-02T09:57:10.279Z,954.93
2023-02-02T09:58:10.233Z,954.91
2023-02-02T09:59:19.505Z,954.93
2023-02-02T10:00:10.199Z,954.93
2023-02-02T10:01:10.216Z,954.89
2023-02-02T10:02:10.165Z,954.88
2023-02-02T10:03:10.145Z,954.9
2023-02-02T10:04:10.172Z,954.92
2023-02-02T10:05:11.058Z,954.93
2023-02-02T10:06:11.036Z,954.96
2023-02-02T10:07:11.027Z,954.94
2023-02-02T10:08:11.002Z,954.95
2023-02-02T10:09:10.984Z,954.97
2023-02-02T10:10:10.991Z,954.99
2023-02-02T10:11:10.949Z,955.01
2023-02-02T10:12:10.930Z,955.02
2023-02-02T10:13:10.938Z,955.04
2023-02-02T10:14:10.894Z,954.95
2023-02-02T10:15:10.878Z,954.93
2023-02-02T10:16:10.953Z,954.97
2023-02-02T10:17:10.844Z,955.05
2023-02-02T10:18:10.821Z,955.07
2023-02-02T10:19:10.807Z,955.08
2023-02-02T10:20:10.791Z,955.11
2023-02-02T10:21:10.772Z,955.11
2023-02-02T10:22:10.755Z,955.06
2023-02-02T10:23:10.735Z,955.12
2023-02-02T10:24:10.717Z,955.07
2023-02-02T10:25:10.701Z,955.02
2023-02-02T10:26:10.681Z,955.05
2023-02-02T10:27:10.662Z,955.14
2023-02-02T10:28:10.644Z,955.18
2023-02-02T10:29:10.658Z,955.12
2023-02-02T10:30:10.606Z,955.11
2023-02-02T10:31:10.693Z,955.09
2023-02-02T10:32:10.717Z,955.08
2023-02-02T10:33:10.553Z,955.1
2023-02-02T10:34:10.538Z,955.09
2023-02-02T10:35:14.082Z,955.12
2023-02-02T10:36:10.497Z,955.12
2023-02-02T10:37:10.482Z,955.16
2023-02-02T10:38:10.465Z,955.21
2023-02-02T10:39:10.447Z,955.16
2023-02-02T10:40:10.502Z,955.25
2023-02-02T10:41:10.408Z,955.18
2023-02-02T10:42:10.393Z,955.13
2023-02-02T10:43:10.371Z,955.15
2023-02-02T10:44:10.354Z,955.13
2023-02-02T10:45:10.370Z,955.1
2023-02-02T10:46:10.368Z,955.14
2023-02-02T10:47:10.300Z,955.15
2023-02-02T10:48:10.283Z,955.11
2023-02-02T10:49:10.286Z,955.1
2023-02-02T10:50:10.255Z,955.05
2023-02-02T10:51:10.261Z,955.15
2023-02-02T10:52:10.216Z,955.13
2023-02-02T10:53:10.193Z,955.13
2023-02-02T10:54:10.176Z,955.19
2023-02-02T10:55:10.262Z,955.17
2023-02-02T10:56:10.219Z,955.14
2023-02-02T10:57:10.129Z,955.1
2023-02-02T10:58:10.104Z,955.1
2023-02-02T10:59:10.091Z,955.14
2023-02-02T11:00:10.070Z,955.11
2023-02-02T11:01:10.111Z,955.11
2023-02-02T11:02:20.264Z,955.16
2023-02-02T11:03:10.087Z,955.14
2023-02-02T11:04:09.995Z,955.18
2023-02-02T11:05:09.974Z,955.21
2023-02-02T11:06:09.960Z,955.14
2023-02-02T11:07:09.937Z,955.18
2023-02-02T11:08:09.920Z,955.17
2023-02-02T11:09:09.901Z,955.22
2023-02-02T11:10:09.888Z,955.26
2023-02-02T11:11:09.865Z,955.22
2023-02-02T11:12:09.848Z,955.19
2023-02-02T11:13:09.828Z,955.17
2023-02-02T11:14:09.812Z,955.18
2023-02-02T11:15:09.792Z,955.25
2023-02-02T11:16:09.802Z,955.22
2023-02-02T11:17:09.780Z,955.17
2023-02-02T11:18:09.738Z,955.36
2023-02-02T11:19:09.719Z,955.33
2023-02-02T11:20:09.699Z,955.38
2023-02-02T11:21:09.680Z,955.34
2023-02-02T11:22:09.666Z,955.38
2023-02-02T11:23:09.644Z,955.35
2023-02-02T11:24:09.627Z,955.38
2023-02-02T11:25:09.606Z,955.35
2023-02-02T11:26:09.589Z,955.36
2023-02-02T11:27:09.571Z,955.39
2023-02-02T11:28:09.554Z,955.32
2023-02-02T11:29:09.532Z,955.31
2023-02-02T11:30:09.514Z,955.3
2023-02-02T11:31:09.581Z,955.32
2023-02-02T11:32:09.478Z,955.31
2023-02-02T11:33:09.485Z,955.33
2023-02-02T11:34:09.625Z,955.26
2023-02-02T11:35:09.425Z,955.21
2023-02-02T11:36:09.406Z,955.25
2023-02-02T11:37:09.387Z,955.23
2023-02-02T11:38:09.367Z,955.22
2023-02-02T11:39:09.350Z,955.29
2023-02-02T11:40:09.330Z,955.32
2023-02-02T11:41:09.313Z,955.32
2023-02-02T11:42:09.293Z,955.39
2023-02-02T11:43:09.277Z,955.4
2023-02-02T11:44:09.257Z,955.37
2023-02-02T11:45:09.241Z,955.42
2023-02-02T11:46:09.262Z,955.41
2023-02-02T11:47:09.203Z,955.4
2023-02-02T11:48:09.181Z,955.46
2023-02-02T11:49:09.189Z,955.45
2023-02-02T11:50:09.150Z,955.48
2023-02-02T11:51:09.200Z,955.46
2023-02-02T11:52:09.109Z,955.49
2023-02-02T11:53:09.100Z,955.55
2023-02-02T11:54:09.070Z,955.53
2023-02-02T11:55:09.076Z,955.57
2023-02-02T11:56:09.032Z,955.56
2023-02-02T11:57:09.016Z,955.68
2023-02-02T11:58:11.088Z,955.59
2023-02-02T11:59:08.980Z,955.62
2023-02-02T12:00:08.958Z,955.58
2023-02-02T12:01:08.942Z,955.6
2023-02-02T12:02:08.966Z,955.54
2023-02-02T12:03:08.905Z,955.59
2023-02-02T12:04:08.884Z,955.62
2023-02-02T12:05:08.952Z,955.67
2023-02-02T12:06:08.846Z,955.63
2023-02-02T12:07:08.831Z,955.7
2023-02-02T12:08:08.808Z,955.72
2023-02-02T12:09:09.583Z,955.71
2023-02-02T12:10:09.565Z,955.78
2023-02-02T12:11:09.543Z,955.84
2023-02-02T12:12:09.523Z,955.76
2023-02-02T12:13:09.534Z,955.75
2023-02-02T12:14:09.485Z,955.79
2023-02-02T12:15:09.469Z,955.85
2023-02-02T12:16:09.496Z,955.86
2023-02-02T12:17:09.432Z,955.86
2023-02-02T12:18:09.409Z,955.82
2023-02-02T12:19:09.391Z,955.86
2023-02-02T12:20:09.375Z,955.89
2023-02-02T12:21:09.379Z,955.9
2023-02-02T12:22:11.307Z,955.91
2023-02-02T12:23:09.319Z,955.84
2023-02-02T12:24:09.296Z,955.83
2023-02-02T12:25:09.308Z,955.85
2023-02-02T12:26:09.260Z,955.85
2023-02-02T12:27:09.239Z,955.86
2023-02-02T12:28:11.426Z,955.84
2023-02-02T12:29:09.202Z,955.86
2023-02-02T12:30:09.184Z,955.88
2023-02-02T12:31:09.215Z,955.85
2023-02-02T12:32:09.146Z,955.89
2023-02-02T12:33:09.129Z,955.88
2023-02-02T12:34:11.751Z,955.84
2023-02-02T12:35:09.089Z,955.89
2023-02-02T12:36:09.090Z,955.87
2023-02-02T12:37:09.079Z,955.89
2023-02-02T12:38:09.034Z,955.86
2023-02-02T12:39:09.011Z,955.89
2023-02-02T12:40:11.347Z,955.9
2023-02-02T12:41:08.975Z,955.97
2023-02-02T12:42:08.963Z,955.93
2023-02-02T12:43:08.956Z,955.88
2023-02-02T12:44:08.919Z,955.93
2023-02-02T12:45:08.900Z,955.93
2023-02-02T12:46:11.468Z,955.94
2023-02-02T12:47:08.860Z,955.93
2023-02-02T12:48:08.850Z,955.93
2023-02-02T12:49:08.848Z,955.97